Hlavní strana
METAR-TAF:

METAR-TAF

Letiště :

Magnitogorsk, Rusko

zeměpisná šířka: 53-23-36N, zeměpisná délka: 058-45-24E, výška: 436 m

Aktuální stav počasí

Zpráva byla vytvořena před 32 minutami, v 16:30 UTC
Bezvětří
Teplota -21°C
Vlhkost vzduchu 84%
Tlak 1015 hPa
Viditelnost: 7000 m

METAR: USCM 181630Z 00000MPS 7000 NSC M21/M23 Q1015 R36/820252 TEMPO 1000 BR VV005 RMK QFE723

Čas: 22:02 (17:02 UTC)

Předpověď počasí

Zpráva byla vytvořena před 3 hodinami a 2 minutami, v 14:00 UTC
Předpověď platná od 18 v 15 UTC do 18 v 24 UTC
Severovýchodní vítr 6 kt s nárazy do 19 kt
Viditelnost: 6000 m
Polojasno ve výšce 1600 ft
Dočasný
od 18 v 15 UTC do 18 v 24 UTC
Východoseverovýchodní vítr 6 kt s nárazy do 23 kt

TAF: USCM 181400Z 1815/1824 04003G10MPS 6000 SCT016 TEMPO 1815/1824 06003G12MPS

Stav a předpovědi počasí z více než 4 000 letišť (zprávy METAR a TAF).

Červené a žluté tečky na mapě představují dostupné meteorologické stanice.

Když kurzor umístíte na tečku, zobrazí se název stanice.

Pak kliknutím zobrazíte stav a předpověď počasí.

Chcete-li změnit mapu, kliknutím na zelené tlačítko se znaménkem +mapu přiblížíte, kliknutím na zelené tlačítko se znaménkem – mapu oddálíte a kliknutím na zelené šipky přejdete na sousední mapy.


METAR-TAF: